sensor_id;sensor_type;location;lat;lon;timestamp;P1;durP1;ratioP1;P2;durP2;ratioP2
74658;SDS011;63186;51.204;6.536;2023-05-10T00:00:09;11.67;;;5.43;;
74658;SDS011;63186;51.204;6.536;2023-05-10T00:02:35;12.77;;;5.03;;
74658;SDS011;63186;51.204;6.536;2023-05-10T00:05:01;10.93;;;4.70;;
74658;SDS011;63186;51.204;6.536;2023-05-10T00:07:26;9.48;;;4.43;;
74658;SDS011;63186;51.204;6.536;2023-05-10T00:09:51;10.57;;;4.17;;
74658;SDS011;63186;51.204;6.536;2023-05-10T00:12:17;11.40;;;4.10;;
74658;SDS011;63186;51.204;6.536;2023-05-10T00:14:42;9.10;;;4.00;;
74658;SDS011;63186;51.204;6.536;2023-05-10T00:17:07;10.50;;;4.30;;
74658;SDS011;63186;51.204;6.536;2023-05-10T00:19:33;9.60;;;3.53;;
74658;SDS011;63186;51.204;6.536;2023-05-10T00:21:58;11.27;;;5.27;;
74658;SDS011;63186;51.204;6.536;2023-05-10T00:24:23;9.70;;;4.50;;
74658;SDS011;63186;51.204;6.536;2023-05-10T00:26:48;9.90;;;4.00;;
74658;SDS011;63186;51.204;6.536;2023-05-10T00:29:14;9.60;;;4.80;;
74658;SDS011;63186;51.204;6.536;2023-05-10T00:31:39;9.77;;;4.43;;
74658;SDS011;63186;51.204;6.536;2023-05-10T00:34:04;11.37;;;4.67;;
74658;SDS011;63186;51.204;6.536;2023-05-10T00:36:29;10.73;;;5.70;;
74658;SDS011;63186;51.204;6.536;2023-05-10T00:38:56;13.15;;;5.30;;
74658;SDS011;63186;51.204;6.536;2023-05-10T00:41:21;10.00;;;4.25;;
74658;SDS011;63186;51.204;6.536;2023-05-10T00:43:46;8.23;;;3.37;;
74658;SDS011;63186;51.204;6.536;2023-05-10T00:46:12;11.67;;;4.13;;
74658;SDS011;63186;51.204;6.536;2023-05-10T00:48:39;9.15;;;4.35;;
74658;SDS011;63186;51.204;6.536;2023-05-10T00:51:04;9.60;;;3.92;;
74658;SDS011;63186;51.204;6.536;2023-05-10T00:53:30;10.25;;;3.63;;
74658;SDS011;63186;51.204;6.536;2023-05-10T00:55:57;8.50;;;4.20;;
74658;SDS011;63186;51.204;6.536;2023-05-10T00:58:22;9.63;;;3.92;;
74658;SDS011;63186;51.204;6.536;2023-05-10T01:00:48;8.20;;;3.25;;
74658;SDS011;63186;51.204;6.536;2023-05-10T01:03:15;7.75;;;3.13;;
74658;SDS011;63186;51.204;6.536;2023-05-10T01:05:43;8.27;;;2.93;;
74658;SDS011;63186;51.204;6.536;2023-05-10T01:08:09;7.35;;;3.33;;
74658;SDS011;63186;51.204;6.536;2023-05-10T01:10:34;5.70;;;2.40;;
74658;SDS011;63186;51.204;6.536;2023-05-10T01:12:59;6.85;;;2.97;;
74658;SDS011;63186;51.204;6.536;2023-05-10T01:15:25;9.48;;;3.63;;
74658;SDS011;63186;51.204;6.536;2023-05-10T01:17:51;5.68;;;2.58;;
74658;SDS011;63186;51.204;6.536;2023-05-10T01:20:17;6.07;;;2.35;;
74658;SDS011;63186;51.204;6.536;2023-05-10T01:25:58;6.00;;;2.05;;
74658;SDS011;63186;51.204;6.536;2023-05-10T01:34:21;7.03;;;2.45;;
74658;SDS011;63186;51.204;6.536;2023-05-10T01:36:57;7.15;;;2.95;;
74658;SDS011;63186;51.204;6.536;2023-05-10T01:39:45;6.43;;;2.53;;
74658;SDS011;63186;51.204;6.536;2023-05-10T01:42:14;6.25;;;2.60;;
74658;SDS011;63186;51.204;6.536;2023-05-10T01:44:49;7.82;;;2.92;;
74658;SDS011;63186;51.204;6.536;2023-05-10T01:47:20;5.47;;;2.35;;
74658;SDS011;63186;51.204;6.536;2023-05-10T01:49:55;6.95;;;2.83;;
74658;SDS011;63186;51.204;6.536;2023-05-10T01:52:25;7.88;;;3.05;;
74658;SDS011;63186;51.204;6.536;2023-05-10T01:54:55;7.53;;;3.25;;
74658;SDS011;63186;51.204;6.536;2023-05-10T01:57:27;7.30;;;3.05;;
74658;SDS011;63186;51.204;6.536;2023-05-10T01:59:58;8.10;;;3.15;;
74658;SDS011;63186;51.204;6.536;2023-05-10T02:02:25;6.63;;;2.83;;
74658;SDS011;63186;51.204;6.536;2023-05-10T02:04:53;6.75;;;2.83;;
74658;SDS011;63186;51.204;6.536;2023-05-10T02:07:20;8.20;;;3.17;;
74658;SDS011;63186;51.204;6.536;2023-05-10T02:09:46;6.78;;;3.25;;
74658;SDS011;63186;51.204;6.536;2023-05-10T02:12:13;7.32;;;3.15;;
74658;SDS011;63186;51.204;6.536;2023-05-10T02:14:39;8.45;;;3.15;;
74658;SDS011;63186;51.204;6.536;2023-05-10T02:17:07;7.05;;;3.08;;
74658;SDS011;63186;51.204;6.536;2023-05-10T02:19:33;7.68;;;3.17;;
74658;SDS011;63186;51.204;6.536;2023-05-10T02:22:01;8.90;;;3.58;;
74658;SDS011;63186;51.204;6.536;2023-05-10T02:24:28;8.00;;;3.03;;
74658;SDS011;63186;51.204;6.536;2023-05-10T02:26:54;8.15;;;2.80;;
74658;SDS011;63186;51.204;6.536;2023-05-10T02:29:21;9.40;;;2.80;;
74658;SDS011;63186;51.204;6.536;2023-05-10T02:34:16;6.72;;;2.38;;
74658;SDS011;63186;51.204;6.536;2023-05-10T02:36:41;6.88;;;2.92;;
74658;SDS011;63186;51.204;6.536;2023-05-10T02:39:07;7.50;;;2.95;;
74658;SDS011;63186;51.204;6.536;2023-05-10T02:41:37;6.43;;;2.85;;
74658;SDS011;63186;51.204;6.536;2023-05-10T02:44:05;7.35;;;3.17;;
74658;SDS011;63186;51.204;6.536;2023-05-10T02:46:32;8.45;;;3.20;;
74658;SDS011;63186;51.204;6.536;2023-05-10T02:48:58;8.48;;;2.90;;
74658;SDS011;63186;51.204;6.536;2023-05-10T02:51:28;8.55;;;3.05;;
74658;SDS011;63186;51.204;6.536;2023-05-10T02:54:01;7.18;;;2.65;;
74658;SDS011;63186;51.204;6.536;2023-05-10T02:56:33;8.82;;;3.40;;
74658;SDS011;63186;51.204;6.536;2023-05-10T02:59:00;9.70;;;3.85;;
74658;SDS011;63186;51.204;6.536;2023-05-10T03:01:26;8.48;;;3.78;;
74658;SDS011;63186;51.204;6.536;2023-05-10T03:03:51;7.97;;;3.63;;
74658;SDS011;63186;51.204;6.536;2023-05-10T03:06:17;9.20;;;3.63;;
74658;SDS011;63186;51.204;6.536;2023-05-10T03:08:43;8.33;;;3.57;;
74658;SDS011;63186;51.204;6.536;2023-05-10T03:11:15;10.15;;;3.97;;
74658;SDS011;63186;51.204;6.536;2023-05-10T03:16:27;9.60;;;4.20;;
74658;SDS011;63186;51.204;6.536;2023-05-10T03:19:11;11.00;;;4.80;;
74658;SDS011;63186;51.204;6.536;2023-05-10T03:21:41;11.55;;;4.50;;
74658;SDS011;63186;51.204;6.536;2023-05-10T03:24:12;10.48;;;6.03;;
74658;SDS011;63186;51.204;6.536;2023-05-10T03:26:40;8.65;;;3.78;;
74658;SDS011;63186;51.204;6.536;2023-05-10T03:29:09;12.95;;;4.20;;
74658;SDS011;63186;51.204;6.536;2023-05-10T03:31:36;11.23;;;4.63;;
74658;SDS011;63186;51.204;6.536;2023-05-10T03:34:03;12.60;;;4.93;;
74658;SDS011;63186;51.204;6.536;2023-05-10T03:36:28;13.87;;;4.70;;
74658;SDS011;63186;51.204;6.536;2023-05-10T03:38:53;11.23;;;4.33;;
74658;SDS011;63186;51.204;6.536;2023-05-10T03:41:19;11.30;;;4.33;;
74658;SDS011;63186;51.204;6.536;2023-05-10T03:43:45;10.63;;;4.80;;
74658;SDS011;63186;51.204;6.536;2023-05-10T03:46:10;12.97;;;4.80;;
74658;SDS011;63186;51.204;6.536;2023-05-10T03:48:35;14.50;;;5.90;;
74658;SDS011;63186;51.204;6.536;2023-05-10T03:51:01;12.07;;;5.23;;
74658;SDS011;63186;51.204;6.536;2023-05-10T03:53:27;12.35;;;5.75;;
74658;SDS011;63186;51.204;6.536;2023-05-10T03:55:52;14.77;;;6.80;;
74658;SDS011;63186;51.204;6.536;2023-05-10T03:58:17;16.02;;;7.07;;
74658;SDS011;63186;51.204;6.536;2023-05-10T04:00:43;17.42;;;6.75;;
74658;SDS011;63186;51.204;6.536;2023-05-10T04:03:10;21.00;;;7.88;;
74658;SDS011;63186;51.204;6.536;2023-05-10T04:05:35;16.20;;;6.97;;
74658;SDS011;63186;51.204;6.536;2023-05-10T04:08:01;16.38;;;8.18;;
74658;SDS011;63186;51.204;6.536;2023-05-10T04:10:27;17.23;;;7.00;;
74658;SDS011;63186;51.204;6.536;2023-05-10T04:12:53;16.15;;;7.13;;
74658;SDS011;63186;51.204;6.536;2023-05-10T04:15:18;18.70;;;8.32;;
74658;SDS011;63186;51.204;6.536;2023-05-10T04:17:44;19.20;;;7.85;;
74658;SDS011;63186;51.204;6.536;2023-05-10T04:20:09;21.33;;;8.30;;
74658;SDS011;63186;51.204;6.536;2023-05-10T04:22:35;16.80;;;7.80;;
74658;SDS011;63186;51.204;6.536;2023-05-10T04:25:00;18.53;;;7.47;;
74658;SDS011;63186;51.204;6.536;2023-05-10T04:27:25;16.57;;;7.53;;
74658;SDS011;63186;51.204;6.536;2023-05-10T04:29:51;17.65;;;6.80;;
74658;SDS011;63186;51.204;6.536;2023-05-10T04:32:16;16.67;;;7.13;;
74658;SDS011;63186;51.204;6.536;2023-05-10T04:34:42;19.77;;;6.93;;
74658;SDS011;63186;51.204;6.536;2023-05-10T04:37:08;17.33;;;8.38;;
74658;SDS011;63186;51.204;6.536;2023-05-10T04:39:33;16.52;;;7.25;;
74658;SDS011;63186;51.204;6.536;2023-05-10T04:41:59;17.50;;;7.53;;
74658;SDS011;63186;51.204;6.536;2023-05-10T04:44:24;14.40;;;6.53;;
74658;SDS011;63186;51.204;6.536;2023-05-10T04:46:49;17.50;;;7.37;;
74658;SDS011;63186;51.204;6.536;2023-05-10T04:49:14;15.03;;;6.43;;
74658;SDS011;63186;51.204;6.536;2023-05-10T04:51:40;12.43;;;5.43;;
74658;SDS011;63186;51.204;6.536;2023-05-10T04:54:05;13.20;;;6.07;;
74658;SDS011;63186;51.204;6.536;2023-05-10T04:56:30;13.70;;;6.43;;
74658;SDS011;63186;51.204;6.536;2023-05-10T04:58:55;13.67;;;6.07;;
74658;SDS011;63186;51.204;6.536;2023-05-10T05:01:21;15.17;;;6.37;;
74658;SDS011;63186;51.204;6.536;2023-05-10T05:03:47;12.82;;;5.53;;
74658;SDS011;63186;51.204;6.536;2023-05-10T05:06:13;12.40;;;4.70;;
74658;SDS011;63186;51.204;6.536;2023-05-10T05:08:38;12.50;;;6.73;;
74658;SDS011;63186;51.204;6.536;2023-05-10T05:11:03;13.87;;;5.80;;
74658;SDS011;63186;51.204;6.536;2023-05-10T05:13:29;12.80;;;5.43;;
74658;SDS011;63186;51.204;6.536;2023-05-10T05:15:54;13.87;;;5.50;;
74658;SDS011;63186;51.204;6.536;2023-05-10T05:18:19;12.27;;;5.73;;
74658;SDS011;63186;51.204;6.536;2023-05-10T05:20:45;13.82;;;5.45;;
74658;SDS011;63186;51.204;6.536;2023-05-10T05:23:10;12.53;;;5.57;;
74658;SDS011;63186;51.204;6.536;2023-05-10T05:25:35;9.60;;;4.43;;
74658;SDS011;63186;51.204;6.536;2023-05-10T05:28:02;14.70;;;6.97;;
74658;SDS011;63186;51.204;6.536;2023-05-10T05:30:27;11.43;;;5.33;;
74658;SDS011;63186;51.204;6.536;2023-05-10T05:32:52;15.43;;;5.67;;
74658;SDS011;63186;51.204;6.536;2023-05-10T05:35:18;14.03;;;5.63;;
74658;SDS011;63186;51.204;6.536;2023-05-10T05:37:43;20.77;;;7.03;;
74658;SDS011;63186;51.204;6.536;2023-05-10T05:40:11;15.90;;;5.63;;
74658;SDS011;63186;51.204;6.536;2023-05-10T05:42:37;15.90;;;6.15;;
74658;SDS011;63186;51.204;6.536;2023-05-10T05:45:03;15.25;;;7.18;;
74658;SDS011;63186;51.204;6.536;2023-05-10T05:47:29;15.57;;;5.97;;
74658;SDS011;63186;51.204;6.536;2023-05-10T05:49:54;11.87;;;4.97;;
74658;SDS011;63186;51.204;6.536;2023-05-10T05:52:20;15.30;;;6.80;;
74658;SDS011;63186;51.204;6.536;2023-05-10T05:54:46;17.27;;;6.35;;
74658;SDS011;63186;51.204;6.536;2023-05-10T05:57:11;15.73;;;6.05;;
74658;SDS011;63186;51.204;6.536;2023-05-10T05:59:36;13.93;;;6.32;;
74658;SDS011;63186;51.204;6.536;2023-05-10T06:02:06;12.95;;;5.13;;
74658;SDS011;63186;51.204;6.536;2023-05-10T06:04:32;14.65;;;6.80;;
74658;SDS011;63186;51.204;6.536;2023-05-10T06:06:57;13.67;;;5.70;;
74658;SDS011;63186;51.204;6.536;2023-05-10T06:09:22;16.90;;;7.20;;
74658;SDS011;63186;51.204;6.536;2023-05-10T06:11:49;13.10;;;5.97;;
74658;SDS011;63186;51.204;6.536;2023-05-10T06:14:14;16.48;;;5.97;;
74658;SDS011;63186;51.204;6.536;2023-05-10T06:16:40;16.15;;;7.00;;
74658;SDS011;63186;51.204;6.536;2023-05-10T06:19:05;15.85;;;7.00;;
74658;SDS011;63186;51.204;6.536;2023-05-10T06:21:30;13.27;;;5.37;;
74658;SDS011;63186;51.204;6.536;2023-05-10T06:23:56;20.20;;;6.87;;
74658;SDS011;63186;51.204;6.536;2023-05-10T06:26:21;16.25;;;6.63;;
74658;SDS011;63186;51.204;6.536;2023-05-10T06:28:46;19.27;;;7.20;;
74658;SDS011;63186;51.204;6.536;2023-05-10T06:31:12;18.63;;;6.83;;
74658;SDS011;63186;51.204;6.536;2023-05-10T06:33:37;14.97;;;7.17;;
74658;SDS011;63186;51.204;6.536;2023-05-10T06:36:02;19.10;;;7.43;;
74658;SDS011;63186;51.204;6.536;2023-05-10T06:38:28;15.73;;;6.20;;
74658;SDS011;63186;51.204;6.536;2023-05-10T06:40:54;13.80;;;6.18;;
74658;SDS011;63186;51.204;6.536;2023-05-10T06:43:19;15.47;;;6.37;;
74658;SDS011;63186;51.204;6.536;2023-05-10T06:45:44;15.15;;;5.80;;
74658;SDS011;63186;51.204;6.536;2023-05-10T06:48:10;15.77;;;5.20;;
74658;SDS011;63186;51.204;6.536;2023-05-10T06:50:35;16.47;;;6.50;;
74658;SDS011;63186;51.204;6.536;2023-05-10T06:53:01;14.55;;;5.55;;
74658;SDS011;63186;51.204;6.536;2023-05-10T06:55:29;14.73;;;6.40;;
74658;SDS011;63186;51.204;6.536;2023-05-10T06:57:54;13.23;;;6.03;;
74658;SDS011;63186;51.204;6.536;2023-05-10T07:00:20;15.00;;;5.88;;
74658;SDS011;63186;51.204;6.536;2023-05-10T07:02:45;13.68;;;5.97;;
74658;SDS011;63186;51.204;6.536;2023-05-10T07:05:11;14.20;;;5.45;;
74658;SDS011;63186;51.204;6.536;2023-05-10T07:07:37;16.48;;;6.55;;
74658;SDS011;63186;51.204;6.536;2023-05-10T07:10:02;19.70;;;7.45;;
74658;SDS011;63186;51.204;6.536;2023-05-10T07:12:28;20.13;;;8.80;;
74658;SDS011;63186;51.204;6.536;2023-05-10T07:14:53;14.50;;;6.17;;
74658;SDS011;63186;51.204;6.536;2023-05-10T07:17:19;23.42;;;10.25;;
74658;SDS011;63186;51.204;6.536;2023-05-10T07:19:44;21.38;;;8.85;;
74658;SDS011;63186;51.204;6.536;2023-05-10T07:22:09;24.80;;;9.30;;
74658;SDS011;63186;51.204;6.536;2023-05-10T07:24:35;21.77;;;8.53;;
74658;SDS011;63186;51.204;6.536;2023-05-10T07:27:00;25.95;;;11.15;;
74658;SDS011;63186;51.204;6.536;2023-05-10T07:29:25;21.43;;;9.33;;
74658;SDS011;63186;51.204;6.536;2023-05-10T07:31:51;23.08;;;9.80;;
74658;SDS011;63186;51.204;6.536;2023-05-10T07:34:16;23.52;;;8.98;;
74658;SDS011;63186;51.204;6.536;2023-05-10T07:36:42;21.20;;;10.00;;
74658;SDS011;63186;51.204;6.536;2023-05-10T07:39:07;23.27;;;9.07;;
74658;SDS011;63186;51.204;6.536;2023-05-10T07:41:32;20.67;;;8.30;;
74658;SDS011;63186;51.204;6.536;2023-05-10T07:43:58;24.05;;;8.75;;
74658;SDS011;63186;51.204;6.536;2023-05-10T07:46:23;23.20;;;9.52;;
74658;SDS011;63186;51.204;6.536;2023-05-10T07:48:48;24.27;;;10.20;;
74658;SDS011;63186;51.204;6.536;2023-05-10T07:51:14;23.53;;;10.57;;
74658;SDS011;63186;51.204;6.536;2023-05-10T07:53:39;23.10;;;10.23;;
74658;SDS011;63186;51.204;6.536;2023-05-10T08:01:35;24.45;;;9.57;;
74658;SDS011;63186;51.204;6.536;2023-05-10T08:04:00;24.80;;;10.35;;
74658;SDS011;63186;51.204;6.536;2023-05-10T08:06:26;31.90;;;11.20;;
74658;SDS011;63186;51.204;6.536;2023-05-10T08:08:53;22.77;;;8.73;;
74658;SDS011;63186;51.204;6.536;2023-05-10T08:11:19;23.33;;;9.55;;
74658;SDS011;63186;51.204;6.536;2023-05-10T08:13:45;18.80;;;7.07;;
74658;SDS011;63186;51.204;6.536;2023-05-10T08:16:11;24.20;;;9.00;;
74658;SDS011;63186;51.204;6.536;2023-05-10T08:18:37;22.83;;;9.73;;
74658;SDS011;63186;51.204;6.536;2023-05-10T08:21:03;17.92;;;8.77;;
74658;SDS011;63186;51.204;6.536;2023-05-10T08:23:28;21.98;;;9.35;;
74658;SDS011;63186;51.204;6.536;2023-05-10T08:25:54;18.33;;;7.43;;
74658;SDS011;63186;51.204;6.536;2023-05-10T08:28:19;19.10;;;8.07;;
74658;SDS011;63186;51.204;6.536;2023-05-10T08:30:44;16.42;;;6.93;;
74658;SDS011;63186;51.204;6.536;2023-05-10T08:33:10;18.30;;;7.87;;
74658;SDS011;63186;51.204;6.536;2023-05-10T08:35:35;20.50;;;8.80;;
74658;SDS011;63186;51.204;6.536;2023-05-10T08:38:00;16.83;;;7.20;;
74658;SDS011;63186;51.204;6.536;2023-05-10T08:40:26;16.70;;;7.40;;
74658;SDS011;63186;51.204;6.536;2023-05-10T08:42:58;17.73;;;7.72;;
74658;SDS011;63186;51.204;6.536;2023-05-10T08:45:31;13.80;;;5.70;;
74658;SDS011;63186;51.204;6.536;2023-05-10T08:47:58;15.70;;;6.72;;
74658;SDS011;63186;51.204;6.536;2023-05-10T08:50:26;16.50;;;6.97;;
74658;SDS011;63186;51.204;6.536;2023-05-10T08:52:52;17.02;;;6.93;;
74658;SDS011;63186;51.204;6.536;2023-05-10T08:57:45;13.33;;;5.87;;
74658;SDS011;63186;51.204;6.536;2023-05-10T09:00:12;12.25;;;5.25;;
74658;SDS011;63186;51.204;6.536;2023-05-10T09:02:38;14.63;;;6.22;;
74658;SDS011;63186;51.204;6.536;2023-05-10T09:05:04;15.02;;;7.03;;
74658;SDS011;63186;51.204;6.536;2023-05-10T09:07:30;15.77;;;6.50;;
74658;SDS011;63186;51.204;6.536;2023-05-10T09:09:55;15.18;;;7.70;;
74658;SDS011;63186;51.204;6.536;2023-05-10T09:12:22;14.98;;;6.30;;
74658;SDS011;63186;51.204;6.536;2023-05-10T09:14:47;16.45;;;6.72;;
74658;SDS011;63186;51.204;6.536;2023-05-10T09:17:15;13.18;;;6.43;;
74658;SDS011;63186;51.204;6.536;2023-05-10T09:19:41;13.23;;;5.70;;
74658;SDS011;63186;51.204;6.536;2023-05-10T09:22:06;12.00;;;5.73;;
74658;SDS011;63186;51.204;6.536;2023-05-10T09:24:31;13.45;;;5.35;;
74658;SDS011;63186;51.204;6.536;2023-05-10T09:26:57;11.97;;;5.27;;
74658;SDS011;63186;51.204;6.536;2023-05-10T09:29:26;14.90;;;6.10;;
74658;SDS011;63186;51.204;6.536;2023-05-10T09:31:51;12.77;;;5.47;;
74658;SDS011;63186;51.204;6.536;2023-05-10T09:34:20;13.50;;;5.80;;
74658;SDS011;63186;51.204;6.536;2023-05-10T09:36:57;14.40;;;6.05;;
74658;SDS011;63186;51.204;6.536;2023-05-10T09:39:30;14.32;;;5.65;;
74658;SDS011;63186;51.204;6.536;2023-05-10T09:41:57;16.48;;;6.15;;
74658;SDS011;63186;51.204;6.536;2023-05-10T09:44:25;15.18;;;7.25;;
74658;SDS011;63186;51.204;6.536;2023-05-10T09:46:50;13.85;;;6.38;;
74658;SDS011;63186;51.204;6.536;2023-05-10T09:49:17;13.80;;;6.05;;
74658;SDS011;63186;51.204;6.536;2023-05-10T09:51:43;14.80;;;6.30;;
74658;SDS011;63186;51.204;6.536;2023-05-10T09:54:09;13.63;;;6.03;;
74658;SDS011;63186;51.204;6.536;2023-05-10T09:56:36;16.50;;;7.35;;
74658;SDS011;63186;51.204;6.536;2023-05-10T09:59:04;15.27;;;6.93;;
74658;SDS011;63186;51.204;6.536;2023-05-10T10:01:30;16.02;;;6.47;;
74658;SDS011;63186;51.204;6.536;2023-05-10T10:03:55;14.82;;;6.72;;
74658;SDS011;63186;51.204;6.536;2023-05-10T10:06:22;11.98;;;5.82;;
74658;SDS011;63186;51.204;6.536;2023-05-10T10:08:48;12.00;;;6.28;;
74658;SDS011;63186;51.204;6.536;2023-05-10T10:11:13;17.73;;;6.97;;
74658;SDS011;63186;51.204;6.536;2023-05-10T10:13:39;17.53;;;7.50;;
74658;SDS011;63186;51.204;6.536;2023-05-10T10:16:04;16.30;;;7.45;;
74658;SDS011;63186;51.204;6.536;2023-05-10T10:18:30;13.00;;;5.28;;
74658;SDS011;63186;51.204;6.536;2023-05-10T10:20:55;14.90;;;5.68;;
74658;SDS011;63186;51.204;6.536;2023-05-10T10:23:21;15.80;;;6.82;;
74658;SDS011;63186;51.204;6.536;2023-05-10T10:25:46;14.68;;;5.72;;
74658;SDS011;63186;51.204;6.536;2023-05-10T10:28:22;15.48;;;7.28;;
74658;SDS011;63186;51.204;6.536;2023-05-10T10:30:55;13.65;;;5.57;;
74658;SDS011;63186;51.204;6.536;2023-05-10T10:33:29;13.15;;;6.07;;
74658;SDS011;63186;51.204;6.536;2023-05-10T10:36:04;17.83;;;6.97;;
74658;SDS011;63186;51.204;6.536;2023-05-10T10:41:11;17.00;;;6.32;;
74658;SDS011;63186;51.204;6.536;2023-05-10T10:54:57;11.40;;;5.97;;
74658;SDS011;63186;51.204;6.536;2023-05-10T10:57:23;11.88;;;5.72;;
74658;SDS011;63186;51.204;6.536;2023-05-10T10:59:51;10.52;;;4.25;;
74658;SDS011;63186;51.204;6.536;2023-05-10T11:02:32;15.45;;;6.97;;
74658;SDS011;63186;51.204;6.536;2023-05-10T11:04:59;14.10;;;5.88;;
74658;SDS011;63186;51.204;6.536;2023-05-10T11:07:24;13.83;;;6.93;;
74658;SDS011;63186;51.204;6.536;2023-05-10T11:09:49;16.58;;;8.77;;
74658;SDS011;63186;51.204;6.536;2023-05-10T11:12:15;16.42;;;6.68;;
74658;SDS011;63186;51.204;6.536;2023-05-10T11:14:40;13.45;;;7.00;;
74658;SDS011;63186;51.204;6.536;2023-05-10T11:17:24;15.68;;;7.40;;
74658;SDS011;63186;51.204;6.536;2023-05-10T11:20:10;14.73;;;7.22;;
74658;SDS011;63186;51.204;6.536;2023-05-10T11:23:13;16.10;;;7.60;;
74658;SDS011;63186;51.204;6.536;2023-05-10T11:25:41;18.55;;;8.30;;
74658;SDS011;63186;51.204;6.536;2023-05-10T11:28:07;15.88;;;7.07;;
74658;SDS011;63186;51.204;6.536;2023-05-10T11:30:33;14.80;;;6.63;;
74658;SDS011;63186;51.204;6.536;2023-05-10T11:32:58;13.60;;;6.63;;
74658;SDS011;63186;51.204;6.536;2023-05-10T11:35:23;17.53;;;8.70;;
74658;SDS011;63186;51.204;6.536;2023-05-10T11:37:49;19.98;;;8.18;;
74658;SDS011;63186;51.204;6.536;2023-05-10T11:40:14;19.40;;;9.38;;
74658;SDS011;63186;51.204;6.536;2023-05-10T11:42:39;17.52;;;8.00;;
74658;SDS011;63186;51.204;6.536;2023-05-10T11:45:05;20.95;;;9.27;;
74658;SDS011;63186;51.204;6.536;2023-05-10T11:47:31;19.90;;;7.25;;
74658;SDS011;63186;51.204;6.536;2023-05-10T11:49:56;19.42;;;8.70;;
74658;SDS011;63186;51.204;6.536;2023-05-10T11:52:22;18.80;;;8.95;;
74658;SDS011;63186;51.204;6.536;2023-05-10T11:54:51;16.52;;;7.85;;
74658;SDS011;63186;51.204;6.536;2023-05-10T11:57:18;20.83;;;8.73;;
74658;SDS011;63186;51.204;6.536;2023-05-10T11:59:45;18.33;;;8.63;;
74658;SDS011;63186;51.204;6.536;2023-05-10T12:02:17;16.20;;;7.53;;
74658;SDS011;63186;51.204;6.536;2023-05-10T12:04:43;16.73;;;7.07;;
74658;SDS011;63186;51.204;6.536;2023-05-10T12:07:08;14.95;;;6.20;;
74658;SDS011;63186;51.204;6.536;2023-05-10T12:09:34;16.70;;;7.70;;
74658;SDS011;63186;51.204;6.536;2023-05-10T12:11:59;14.47;;;6.93;;
74658;SDS011;63186;51.204;6.536;2023-05-10T12:14:25;13.30;;;6.18;;
74658;SDS011;63186;51.204;6.536;2023-05-10T12:16:51;14.68;;;6.45;;
74658;SDS011;63186;51.204;6.536;2023-05-10T12:19:19;14.93;;;6.73;;
74658;SDS011;63186;51.204;6.536;2023-05-10T12:21:48;19.23;;;7.68;;
74658;SDS011;63186;51.204;6.536;2023-05-10T12:24:13;17.25;;;8.20;;
74658;SDS011;63186;51.204;6.536;2023-05-10T12:26:42;14.68;;;6.70;;
74658;SDS011;63186;51.204;6.536;2023-05-10T12:31:56;14.90;;;6.90;;
74658;SDS011;63186;51.204;6.536;2023-05-10T12:34:26;16.20;;;6.78;;
74658;SDS011;63186;51.204;6.536;2023-05-10T12:36:59;15.50;;;6.75;;
74658;SDS011;63186;51.204;6.536;2023-05-10T12:39:25;16.08;;;6.95;;
74658;SDS011;63186;51.204;6.536;2023-05-10T12:41:51;15.27;;;5.90;;
74658;SDS011;63186;51.204;6.536;2023-05-10T12:44:17;14.95;;;7.40;;
74658;SDS011;63186;51.204;6.536;2023-05-10T12:46:43;14.95;;;7.30;;
74658;SDS011;63186;51.204;6.536;2023-05-10T12:49:08;14.57;;;6.87;;
74658;SDS011;63186;51.204;6.536;2023-05-10T12:51:33;14.77;;;6.70;;
74658;SDS011;63186;51.204;6.536;2023-05-10T12:53:59;17.88;;;7.30;;
74658;SDS011;63186;51.204;6.536;2023-05-10T12:56:24;15.20;;;6.60;;
74658;SDS011;63186;51.204;6.536;2023-05-10T12:58:49;14.30;;;6.70;;
74658;SDS011;63186;51.204;6.536;2023-05-10T13:01:15;12.25;;;5.65;;
74658;SDS011;63186;51.204;6.536;2023-05-10T13:03:41;14.20;;;7.07;;
74658;SDS011;63186;51.204;6.536;2023-05-10T13:06:08;12.70;;;6.18;;
74658;SDS011;63186;51.204;6.536;2023-05-10T13:08:33;13.50;;;6.15;;
74658;SDS011;63186;51.204;6.536;2023-05-10T13:10:59;10.00;;;5.13;;
74658;SDS011;63186;51.204;6.536;2023-05-10T13:13:25;11.15;;;4.43;;
74658;SDS011;63186;51.204;6.536;2023-05-10T13:15:51;10.32;;;4.28;;
74658;SDS011;63186;51.204;6.536;2023-05-10T13:18:16;12.17;;;4.90;;
74658;SDS011;63186;51.204;6.536;2023-05-10T13:20:41;12.27;;;5.30;;
74658;SDS011;63186;51.204;6.536;2023-05-10T13:23:09;10.60;;;4.55;;
74658;SDS011;63186;51.204;6.536;2023-05-10T13:25:34;10.80;;;4.97;;
74658;SDS011;63186;51.204;6.536;2023-05-10T13:27:59;11.03;;;5.27;;
74658;SDS011;63186;51.204;6.536;2023-05-10T13:30:25;11.05;;;4.40;;
74658;SDS011;63186;51.204;6.536;2023-05-10T13:32:50;11.33;;;4.67;;
74658;SDS011;63186;51.204;6.536;2023-05-10T13:35:15;9.70;;;3.83;;
74658;SDS011;63186;51.204;6.536;2023-05-10T13:37:41;11.33;;;4.37;;
74658;SDS011;63186;51.204;6.536;2023-05-10T13:40:06;12.85;;;5.28;;
74658;SDS011;63186;51.204;6.536;2023-05-10T13:42:32;12.05;;;5.07;;
74658;SDS011;63186;51.204;6.536;2023-05-10T13:44:58;10.30;;;4.18;;
74658;SDS011;63186;51.204;6.536;2023-05-10T13:47:25;10.07;;;4.93;;
74658;SDS011;63186;51.204;6.536;2023-05-10T13:49:51;12.90;;;4.40;;
74658;SDS011;63186;51.204;6.536;2023-05-10T13:52:16;10.57;;;4.70;;
74658;SDS011;63186;51.204;6.536;2023-05-10T13:54:41;10.60;;;4.77;;
74658;SDS011;63186;51.204;6.536;2023-05-10T13:57:07;10.25;;;4.45;;
74658;SDS011;63186;51.204;6.536;2023-05-10T13:59:32;9.67;;;4.10;;
74658;SDS011;63186;51.204;6.536;2023-05-10T14:01:58;10.23;;;4.20;;
74658;SDS011;63186;51.204;6.536;2023-05-10T14:04:23;10.38;;;4.63;;
74658;SDS011;63186;51.204;6.536;2023-05-10T14:06:49;9.30;;;3.83;;
74658;SDS011;63186;51.204;6.536;2023-05-10T14:09:14;7.70;;;3.17;;
74658;SDS011;63186;51.204;6.536;2023-05-10T14:11:39;9.30;;;3.00;;
74658;SDS011;63186;51.204;6.536;2023-05-10T14:14:08;9.27;;;3.40;;
74658;SDS011;63186;51.204;6.536;2023-05-10T14:16:33;9.00;;;3.63;;
74658;SDS011;63186;51.204;6.536;2023-05-10T14:18:59;9.90;;;4.20;;
74658;SDS011;63186;51.204;6.536;2023-05-10T14:21:24;8.83;;;3.93;;
74658;SDS011;63186;51.204;6.536;2023-05-10T14:23:49;9.63;;;3.65;;
74658;SDS011;63186;51.204;6.536;2023-05-10T14:26:14;9.43;;;3.90;;
74658;SDS011;63186;51.204;6.536;2023-05-10T14:28:40;9.33;;;4.00;;
74658;SDS011;63186;51.204;6.536;2023-05-10T14:31:05;10.07;;;3.87;;
74658;SDS011;63186;51.204;6.536;2023-05-10T14:33:31;9.95;;;3.72;;
74658;SDS011;63186;51.204;6.536;2023-05-10T14:35:56;9.57;;;4.20;;
74658;SDS011;63186;51.204;6.536;2023-05-10T14:38:22;9.27;;;3.70;;
74658;SDS011;63186;51.204;6.536;2023-05-10T14:40:48;10.00;;;3.83;;
74658;SDS011;63186;51.204;6.536;2023-05-10T14:43:13;9.70;;;4.30;;
74658;SDS011;63186;51.204;6.536;2023-05-10T14:45:38;10.90;;;4.67;;
74658;SDS011;63186;51.204;6.536;2023-05-10T14:48:04;9.63;;;4.10;;
74658;SDS011;63186;51.204;6.536;2023-05-10T14:50:29;10.30;;;4.28;;
74658;SDS011;63186;51.204;6.536;2023-05-10T14:52:56;11.82;;;4.20;;
74658;SDS011;63186;51.204;6.536;2023-05-10T14:55:21;10.30;;;4.55;;
74658;SDS011;63186;51.204;6.536;2023-05-10T14:57:46;11.13;;;4.03;;
74658;SDS011;63186;51.204;6.536;2023-05-10T15:00:14;8.32;;;3.55;;
74658;SDS011;63186;51.204;6.536;2023-05-10T15:02:40;8.32;;;3.30;;
74658;SDS011;63186;51.204;6.536;2023-05-10T15:05:06;9.90;;;4.25;;
74658;SDS011;63186;51.204;6.536;2023-05-10T15:07:32;11.43;;;4.57;;
74658;SDS011;63186;51.204;6.536;2023-05-10T15:09:57;9.40;;;4.70;;
74658;SDS011;63186;51.204;6.536;2023-05-10T15:12:22;11.47;;;4.57;;